Time;durP1;ratioP1;P1;durP2;ratioP2;P2;SDS_P1;SDS_P2;PMS_P1;PMS_P2;Temp;Humidity;BMP_temperature;BMP_pressure;BME280_temperature;BME280_humidity;BME280_pressure;Samples;Min_cycle;Max_cycle;Signal;HPM_P1;HPM_P2
2021/04/02 00:00:48;;;;;;;13.43;5.03;;;5.40;93.80;;;;;;5063515;28;20550;-35
2021/04/02 00:03:23;;;;;;;17.20;4.93;;;5.40;94.00;;;;;;5064720;28;20109;-36
2021/04/02 00:05:49;;;;;;;11.15;4.80;;;5.40;94.20;;;;;;5063547;28;20078;-35
2021/04/02 00:08:15;;;;;;;11.35;4.43;;;5.30;94.20;;;;;;5064606;28;20047;-38
2021/04/02 00:10:55;;;;;;;12.70;5.10;;;5.30;94.30;;;;;;5063977;28;20032;-36
2021/04/02 00:13:24;;;;;;;16.08;5.43;;;5.20;94.40;;;;;;5064065;28;20032;-38
2021/04/02 00:15:51;;;;;;;10.73;4.38;;;5.20;94.50;;;;;;5064051;28;20062;-32
2021/04/02 00:18:20;;;;;;;9.95;5.25;;;5.20;94.60;;;;;;5064640;28;20012;-35
2021/04/02 00:20:46;;;;;;;15.52;4.70;;;5.10;94.70;;;;;;5063472;28;20028;-37
2021/04/02 00:23:12;;;;;;;10.73;4.35;;;5.10;94.80;;;;;;5064536;28;20031;-34
2021/04/02 00:25:38;;;;;;;14.90;5.20;;;5.10;94.90;;;;;;5063982;28;20066;-38
2021/04/02 00:28:04;;;;;;;10.07;4.50;;;5.00;94.80;;;;;;5063405;28;20048;-38
2021/04/02 00:30:43;;;;;;;10.57;4.95;;;5.00;95.10;;;;;;5063863;28;20097;-36
2021/04/02 00:33:10;;;;;;;14.00;5.60;;;4.90;95.10;;;;;;5063703;28;20039;-38
2021/04/02 00:35:36;;;;;;;19.45;5.65;;;4.90;95.10;;;;;;5063353;28;20036;-38
2021/04/02 00:38:03;;;;;;;17.30;5.38;;;4.80;95.30;;;;;;5063626;28;20475;-39
2021/04/02 00:40:55;;;;;;;15.95;5.35;;;4.80;95.30;;;;;;5063513;28;20191;-35
2021/04/02 00:43:27;;;;;;;16.58;6.00;;;4.80;95.40;;;;;;5064133;28;20035;-37
2021/04/02 00:45:53;;;;;;;15.95;5.65;;;4.70;95.50;;;;;;5063401;28;20080;-38
2021/04/02 00:48:19;;;;;;;17.77;6.20;;;4.70;95.60;;;;;;5063644;28;20470;-37
2021/04/02 00:50:59;;;;;;;17.17;5.75;;;4.70;95.70;;;;;;5063953;28;20108;-38
2021/04/02 00:53:32;;;;;;;11.77;5.82;;;4.70;95.80;;;;;;5062591;28;20012;-39
2021/04/02 00:55:59;;;;;;;13.80;5.55;;;4.60;95.90;;;;;;5063306;28;20217;-36
2021/04/02 00:58:26;;;;;;;18.50;6.05;;;4.60;96.00;;;;;;5063707;28;20135;-41
2021/04/02 01:00:52;;;;;;;15.75;6.15;;;4.60;96.10;;;;;;5063036;28;20372;-39
2021/04/02 01:03:20;;;;;;;14.75;6.97;;;4.50;96.10;;;;;;5063402;28;20181;-39
2021/04/02 01:05:47;;;;;;;19.63;6.47;;;4.50;96.30;;;;;;5063936;28;20033;-39
2021/04/02 01:08:22;;;;;;;11.52;6.10;;;4.50;96.40;;;;;;5065401;28;20451;-38
2021/04/02 01:10:51;;;;;;;17.35;7.03;;;4.40;96.40;;;;;;5066786;28;20048;-38
2021/04/02 01:13:24;;;;;;;16.77;7.38;;;4.40;96.50;;;;;;5067966;28;20801;-38
2021/04/02 01:15:53;;;;;;;24.60;6.97;;;4.30;96.60;;;;;;5067064;28;20032;-39
2021/04/02 01:18:43;;;;;;;21.42;6.80;;;4.30;96.70;;;;;;5067586;28;20456;-36
2021/04/02 01:21:48;;;;;;;19.55;7.57;;;4.20;96.70;;;;;;5067859;28;20052;-38
2021/04/02 01:24:22;;;;;;;18.30;7.43;;;4.20;96.80;;;;;;5059422;28;20109;-38
2021/04/02 01:27:06;;;;;;;18.42;7.38;;;4.10;96.90;;;;;;5067468;28;20036;-38
2021/04/02 01:29:41;;;;;;;17.10;6.47;;;4.10;97.00;;;;;;5067192;28;20099;-39
2021/04/02 01:32:18;;;;;;;15.82;6.40;;;4.00;97.00;;;;;;5067710;28;20035;-39
2021/04/02 01:34:48;;;;;;;18.27;7.22;;;4.00;97.10;;;;;;5067252;28;20050;-38
2021/04/02 01:37:31;;;;;;;14.98;6.70;;;3.90;97.20;;;;;;5067089;28;20066;-38
2021/04/02 01:40:03;;;;;;;18.30;6.05;;;3.90;97.20;;;;;;5066017;28;20123;-39
2021/04/02 01:42:30;;;;;;;11.50;6.07;;;3.90;97.20;;;;;;5067385;28;20111;-38
2021/04/02 01:44:58;;;;;;;15.65;6.28;;;3.90;97.30;;;;;;5066587;28;20036;-38
2021/04/02 01:47:25;;;;;;;12.85;6.03;;;3.80;97.30;;;;;;5067339;28;20353;-39
2021/04/02 01:49:53;;;;;;;14.65;6.53;;;3.80;97.30;;;;;;5066721;28;20088;-38
2021/04/02 01:52:22;;;;;;;15.75;7.00;;;3.80;97.30;;;;;;5067052;28;20024;-37
2021/04/02 01:54:49;;;;;;;15.95;5.97;;;3.80;97.30;;;;;;5066606;28;20133;-38
2021/04/02 01:57:16;;;;;;;16.08;6.40;;;3.70;97.30;;;;;;5066729;28;20684;-37
2021/04/02 01:59:42;;;;;;;14.90;5.47;;;3.70;97.30;;;;;;5066508;28;20439;-37
2021/04/02 02:02:08;;;;;;;11.63;5.53;;;3.70;97.30;;;;;;5066391;28;20024;-38
2021/04/02 02:04:39;;;;;;;12.82;5.38;;;3.70;97.30;;;;;;5064874;28;20025;-36
2021/04/02 02:07:05;;;;;;;14.88;5.43;;;3.60;97.30;;;;;;5066485;28;20051;-37
2021/04/02 02:09:35;;;;;;;13.73;5.60;;;3.60;97.30;;;;;;5065853;28;20521;-38
2021/04/02 02:12:04;;;;;;;15.70;4.93;;;3.60;97.40;;;;;;5066118;28;20158;-37
2021/04/02 02:14:33;;;;;;;16.67;5.55;;;3.60;97.40;;;;;;5066359;28;20119;-38
2021/04/02 02:17:02;;;;;;;17.42;5.90;;;3.60;97.40;;;;;;5066728;28;20114;-36
2021/04/02 02:19:31;;;;;;;12.73;5.43;;;3.60;97.40;;;;;;5064401;28;20088;-40
2021/04/02 02:22:04;;;;;;;14.00;4.78;;;3.50;97.40;;;;;;5066049;28;20054;-36
2021/04/02 02:24:30;;;;;;;11.32;5.00;;;3.50;97.40;;;;;;5066382;28;20031;-37
2021/04/02 02:26:57;;;;;;;9.35;4.43;;;3.50;97.40;;;;;;5065677;28;20025;-35
2021/04/02 02:29:23;;;;;;;12.98;5.00;;;3.50;97.40;;;;;;5065938;28;20120;-38
2021/04/02 02:31:50;;;;;;;13.40;4.85;;;3.50;97.40;;;;;;5066225;28;20036;-38
2021/04/02 02:34:16;;;;;;;13.38;5.07;;;3.40;97.40;;;;;;5065853;28;20163;-38
2021/04/02 02:36:42;;;;;;;15.13;5.05;;;3.40;97.40;;;;;;5065948;28;20568;-36
2021/04/02 02:39:10;;;;;;;14.10;4.40;;;3.40;97.40;;;;;;5066524;28;20024;-37
2021/04/02 02:41:36;;;;;;;13.60;5.70;;;3.40;97.40;;;;;;5065125;28;20033;-35
2021/04/02 02:44:03;;;;;;;15.23;5.03;;;3.40;97.50;;;;;;5066191;28;20028;-38
2021/04/02 02:46:29;;;;;;;12.10;4.43;;;3.40;97.50;;;;;;5065727;28;20133;-37
2021/04/02 02:49:01;;;;;;;15.60;5.10;;;3.30;97.70;;;;;;5065268;28;20016;-36
2021/04/02 02:51:30;;;;;;;11.20;4.82;;;3.30;97.50;;;;;;5065830;28;20028;-38
2021/04/02 02:53:59;;;;;;;11.98;5.05;;;3.30;97.50;;;;;;5065367;28;20052;-38
2021/04/02 02:56:27;;;;;;;10.50;4.95;;;3.30;97.60;;;;;;5065318;28;20031;-35
2021/04/02 02:58:54;;;;;;;11.45;5.13;;;3.30;97.60;;;;;;5065345;28;20021;-35
2021/04/02 03:01:20;;;;;;;12.15;5.30;;;3.20;97.60;;;;;;5065188;28;20040;-38
2021/04/02 03:03:46;;;;;;;13.48;5.60;;;3.20;97.70;;;;;;5065446;28;20341;-37
2021/04/02 03:06:15;;;;;;;11.85;4.55;;;3.20;97.70;;;;;;5065565;28;20056;-37
2021/04/02 03:08:46;;;;;;;10.23;4.07;;;3.20;97.70;;;;;;5064746;28;20067;-38
2021/04/02 03:11:19;;;;;;;10.70;4.40;;;3.20;97.70;;;;;;5065674;28;20028;-37
2021/04/02 03:13:46;;;;;;;15.70;5.70;;;3.20;97.80;;;;;;5054972;28;20103;-40
2021/04/02 03:16:12;;;;;;;14.23;5.63;;;3.20;97.80;;;;;;5064311;28;20021;-39
2021/04/02 03:18:38;;;;;;;14.15;5.57;;;3.20;97.90;;;;;;5064992;28;20020;-36
2021/04/02 03:21:06;;;;;;;14.05;4.88;;;3.20;97.90;;;;;;5064404;28;20067;-36
2021/04/02 03:23:34;;;;;;;8.43;4.13;;;3.10;97.90;;;;;;5061971;28;20024;-37
2021/04/02 03:26:00;;;;;;;13.40;4.68;;;3.10;97.90;;;;;;5065159;28;20669;-35
2021/04/02 03:28:26;;;;;;;14.00;5.35;;;3.10;98.00;;;;;;5064625;28;20039;-37
2021/04/02 03:30:55;;;;;;;9.57;4.45;;;3.10;98.00;;;;;;5063688;28;20103;-35
2021/04/02 03:33:26;;;;;;;12.43;4.60;;;3.10;98.10;;;;;;5065085;28;20472;-37
2021/04/02 03:35:59;;;;;;;10.52;4.85;;;3.10;98.20;;;;;;5065037;28;20035;-37
2021/04/02 03:38:29;;;;;;;;;;;3.10;98.20;;;;;;5065033;28;20031;-37
2021/04/02 03:40:55;;;;;;;10.95;4.43;;;3.10;98.30;;;;;;5045179;28;19917;-36
2021/04/02 03:43:25;;;;;;;11.65;4.50;;;3.10;98.30;;;;;;5059180;28;20021;-37
2021/04/02 03:45:52;;;;;;;13.50;5.05;;;3.10;98.30;;;;;;5064753;28;20147;-37
2021/04/02 03:48:19;;;;;;;10.88;4.72;;;3.10;98.40;;;;;;5065005;28;20021;-36
2021/04/02 03:50:52;;;;;;;15.40;4.90;;;3.10;98.40;;;;;;5064731;28;20059;-37
2021/04/02 03:53:26;;;;;;;8.57;4.15;;;3.10;98.50;;;;;;5064560;28;20448;-38
2021/04/02 03:55:53;;;;;;;9.35;4.80;;;3.10;98.50;;;;;;5064738;28;20464;-38
2021/04/02 03:58:20;;;;;;;9.75;4.82;;;3.10;98.60;;;;;;5064497;28;20092;-35
2021/04/02 04:01:11;;;;;;;14.20;5.10;;;3.10;98.60;;;;;;5064337;28;20487;-35
2021/04/02 04:03:41;;;;;;;14.82;5.25;;;3.10;98.60;;;;;;5064237;28;20064;-37
2021/04/02 04:06:11;;;;;;;12.40;4.95;;;3.10;98.60;;;;;;5063978;28;20144;-39
2021/04/02 04:08:40;;;;;;;12.25;4.35;;;3.10;98.60;;;;;;5064679;28;20032;-37
2021/04/02 04:11:08;;;;;;;13.07;5.22;;;3.20;98.70;;;;;;5065396;28;20025;-36
2021/04/02 04:13:36;;;;;;;16.80;4.95;;;3.10;98.70;;;;;;5064278;28;20024;-38
2021/04/02 04:16:03;;;;;;;12.40;5.95;;;3.20;98.80;;;;;;5065138;28;20035;-35
2021/04/02 04:18:31;;;;;;;14.32;6.28;;;3.20;98.90;;;;;;5064624;28;20029;-39
2021/04/02 04:21:04;;;;;;;11.95;5.32;;;3.30;98.90;;;;;;5065131;28;20122;-36
2021/04/02 04:23:30;;;;;;;15.25;5.80;;;3.30;99.00;;;;;;5064857;28;20777;-34
2021/04/02 04:25:58;;;;;;;17.38;6.30;;;3.30;99.00;;;;;;5064917;28;20028;-37
2021/04/02 04:28:28;;;;;;;11.30;5.60;;;3.30;99.00;;;;;;5065228;28;20025;-39
2021/04/02 04:30:58;;;;;;;12.05;5.65;;;3.30;99.00;;;;;;5064864;28;20027;-37
2021/04/02 04:33:25;;;;;;;15.07;5.32;;;3.30;99.00;;;;;;5064554;28;20046;-38
2021/04/02 04:35:52;;;;;;;10.30;5.65;;;3.30;99.00;;;;;;5064232;28;20062;-37
2021/04/02 04:38:19;;;;;;;19.65;6.38;;;3.30;99.00;;;;;;5065202;28;20025;-38
2021/04/02 04:40:46;;;;;;;19.55;6.28;;;3.30;99.00;;;;;;5063888;28;20036;-38
2021/04/02 04:43:14;;;;;;;12.02;5.80;;;3.30;99.00;;;;;;5067127;28;20024;-38
2021/04/02 04:45:40;;;;;;;18.75;6.05;;;3.40;99.10;;;;;;5068571;28;20031;-38
2021/04/02 04:48:06;;;;;;;16.95;5.72;;;3.40;99.10;;;;;;5068836;28;20532;-36
2021/04/02 04:50:32;;;;;;;14.77;6.13;;;3.40;99.10;;;;;;5068910;28;20514;-37
2021/04/02 04:53:31;;;;;;;15.43;5.72;;;3.30;99.10;;;;;;5068988;28;20028;-38
2021/04/02 04:56:01;;;;;;;12.77;5.50;;;3.40;99.10;;;;;;5068151;28;20027;-39
2021/04/02 04:58:34;;;;;;;14.05;5.93;;;3.40;99.10;;;;;;5069099;28;20021;-39
2021/04/02 05:01:08;;;;;;;13.75;5.57;;;3.40;99.10;;;;;;5068217;28;20150;-38
2021/04/02 05:03:35;;;;;;;20.85;5.72;;;3.40;99.10;;;;;;5068778;28;20086;-39
2021/04/02 05:06:01;;;;;;;13.18;5.13;;;3.40;99.10;;;;;;5068715;28;20143;-39
2021/04/02 05:08:32;;;;;;;12.82;5.72;;;3.40;99.20;;;;;;5068454;28;20122;-39
2021/04/02 05:11:00;;;;;;;11.77;5.78;;;3.40;99.20;;;;;;5068283;28;20743;-36
2021/04/02 05:13:31;;;;;;;18.08;5.70;;;3.40;99.10;;;;;;5069181;28;20021;-41
2021/04/02 05:15:58;;;;;;;13.05;6.18;;;3.40;99.10;;;;;;5067995;28;20023;-38
2021/04/02 05:18:25;;;;;;;17.08;6.30;;;3.40;99.10;;;;;;5068622;28;20033;-39
2021/04/02 05:20:51;;;;;;;15.93;6.72;;;3.40;99.20;;;;;;5068420;28;20067;-40
2021/04/02 05:23:17;;;;;;;16.88;6.70;;;3.40;99.20;;;;;;5068103;28;20090;-39
2021/04/02 05:25:43;;;;;;;18.27;6.30;;;3.40;99.10;;;;;;5068335;28;20050;-40
2021/04/02 05:28:09;;;;;;;12.68;5.53;;;3.40;99.10;;;;;;5068910;28;20514;-39
2021/04/02 05:30:35;;;;;;;14.52;5.82;;;3.40;99.10;;;;;;5067778;28;20055;-38
2021/04/02 05:33:02;;;;;;;18.30;5.28;;;3.40;99.10;;;;;;5068109;28;20028;-39
2021/04/02 05:35:28;;;;;;;10.27;5.60;;;3.40;99.10;;;;;;5068539;28;20051;-37
2021/04/02 05:37:53;;;;;;;11.55;5.10;;;3.40;99.10;;;;;;5067379;28;20024;-42
2021/04/02 05:40:19;;;;;;;10.20;5.40;;;3.40;99.10;;;;;;5068751;28;20040;-38
2021/04/02 05:43:23;;;;;;;9.38;5.47;;;3.40;99.10;;;;;;5068302;28;20040;-38
2021/04/02 05:45:49;;;;;;;15.38;5.22;;;3.40;99.10;;;;;;5068304;28;20056;-38
2021/04/02 05:48:16;;;;;;;13.73;5.22;;;3.40;99.10;;;;;;5067250;28;20016;-36
2021/04/02 05:50:42;;;;;;;16.13;5.38;;;3.40;99.10;;;;;;5063007;28;20110;-38
2021/04/02 05:53:10;;;;;;;8.65;5.20;;;3.40;99.00;;;;;;5067271;28;20098;-39
2021/04/02 05:55:38;;;;;;;12.85;5.80;;;3.40;99.00;;;;;;5065728;28;20020;-40
2021/04/02 05:58:05;;;;;;;15.82;5.40;;;3.40;99.00;;;;;;5065920;28;20028;-39
2021/04/02 06:00:33;;;;;;;10.35;5.50;;;3.50;99.10;;;;;;5067124;28;20372;-38
2021/04/02 06:03:01;;;;;;;10.65;5.13;;;3.50;99.10;;;;;;5067262;28;20055;-38
2021/04/02 06:05:29;;;;;;;11.68;4.95;;;3.50;99.00;;;;;;5067432;28;20035;-37
2021/04/02 06:07:57;;;;;;;14.70;5.88;;;3.60;99.10;;;;;;5066664;28;20070;-41
2021/04/02 06:10:24;;;;;;;9.50;5.53;;;3.60;99.00;;;;;;5066778;28;20044;-39
2021/04/02 06:12:50;;;;;;;15.05;5.78;;;3.60;99.00;;;;;;5065748;28;20020;-39
2021/04/02 06:15:21;;;;;;;17.92;5.30;;;3.70;99.00;;;;;;5067468;28;20074;-39
2021/04/02 06:18:07;;;;;;;14.35;4.75;;;3.70;99.00;;;;;;5066444;28;20024;-40
2021/04/02 06:20:37;;;;;;;10.20;4.90;;;3.70;98.90;;;;;;5066853;28;20040;-37
2021/04/02 06:23:02;;;;;;;12.60;4.80;;;3.70;98.90;;;;;;5066529;28;20070;-40
2021/04/02 06:25:28;;;;;;;16.42;5.85;;;3.80;98.90;;;;;;5066190;28;20488;-39
2021/04/02 06:27:56;;;;;;;10.20;4.47;;;3.80;98.90;;;;;;5067101;28;20307;-40
2021/04/02 06:30:31;;;;;;;9.88;4.50;;;3.80;98.90;;;;;;5067681;28;20028;-38
2021/04/02 06:32:57;;;;;;;11.48;4.35;;;3.80;98.90;;;;;;5067336;28;20013;-38
2021/04/02 06:35:26;;;;;;;10.65;4.68;;;3.90;98.80;;;;;;5067468;28;20746;-39
2021/04/02 06:37:57;;;;;;;7.20;4.00;;;3.90;98.80;;;;;;5067022;28;20415;-38
2021/04/02 06:40:24;;;;;;;11.82;4.53;;;3.90;98.70;;;;;;5066415;28;20462;-38
2021/04/02 06:42:50;;;;;;;13.10;5.38;;;4.00;98.70;;;;;;5067040;28;20071;-39
2021/04/02 06:45:16;;;;;;;20.02;5.28;;;4.00;98.70;;;;;;5067327;28;20052;-38
2021/04/02 06:47:44;;;;;;;18.95;4.75;;;4.10;98.60;;;;;;5066687;28;20597;-37
2021/04/02 06:50:26;;;;;;;19.23;4.43;;;4.10;98.60;;;;;;5066831;28;20383;-39
2021/04/02 06:52:56;;;;;;;14.80;4.95;;;4.20;98.60;;;;;;5067355;28;20025;-37
2021/04/02 06:55:26;;;;;;;11.05;4.15;;;4.30;98.50;;;;;;5066610;28;20028;-40
2021/04/02 06:57:53;;;;;;;12.98;3.88;;;4.30;98.40;;;;;;5071299;28;20029;-37
2021/04/02 07:00:21;;;;;;;9.88;3.83;;;4.40;98.40;;;;;;5066846;28;20032;-38
2021/04/02 07:02:49;;;;;;;8.10;3.42;;;4.40;98.30;;;;;;5066643;28;20055;-36
2021/04/02 07:05:17;;;;;;;18.25;4.35;;;4.50;98.20;;;;;;5066451;28;20036;-39
2021/04/02 07:07:45;;;;;;;8.30;3.83;;;4.60;98.20;;;;;;5066179;28;20059;-39
2021/04/02 07:10:12;;;;;;;16.52;4.90;;;4.60;98.00;;;;;;5066239;28;20108;-37
2021/04/02 07:12:42;;;;;;;8.23;3.33;;;4.70;98.00;;;;;;5066053;28;20036;-39
2021/04/02 07:15:09;;;;;;;14.85;3.92;;;4.80;97.90;;;;;;5065810;28;20025;-36
2021/04/02 07:17:38;;;;;;;16.20;4.10;;;4.80;97.80;;;;;;5066338;28;20025;-43
2021/04/02 07:20:05;;;;;;;12.23;3.25;;;4.90;97.60;;;;;;5065407;28;20321;-37
2021/04/02 07:22:32;;;;;;;11.10;3.15;;;5.00;97.40;;;;;;5065840;28;20032;-38
2021/04/02 07:24:59;;;;;;;12.73;3.42;;;5.10;97.10;;;;;;5065931;28;20040;-35
2021/04/02 07:27:27;;;;;;;14.23;2.90;;;5.10;97.00;;;;;;5066565;28;20033;-37
2021/04/02 07:29:54;;;;;;;14.05;2.70;;;5.20;96.90;;;;;;5065794;28;20062;-37
2021/04/02 07:32:21;;;;;;;10.48;2.88;;;5.30;96.70;;;;;;5055750;28;20521;-38
2021/04/02 07:34:47;;;;;;;12.40;2.97;;;5.40;96.50;;;;;;5065743;28;20023;-39
2021/04/02 07:37:15;;;;;;;11.48;3.40;;;5.60;96.10;;;;;;5065861;28;20020;-38
2021/04/02 07:39:41;;;;;;;7.43;2.80;;;5.80;95.80;;;;;;5066221;28;20484;-37
2021/04/02 07:42:07;;;;;;;10.85;2.85;;;6.00;95.50;;;;;;5065942;28;20071;-38
2021/04/02 07:44:41;;;;;;;11.68;3.38;;;6.10;94.70;;;;;;5065533;28;20157;-38
2021/04/02 07:47:12;;;;;;;11.15;2.55;;;6.20;94.10;;;;;;5065719;28;20043;-38
2021/04/02 07:49:54;;;;;;;12.95;2.63;;;6.30;94.20;;;;;;5065706;28;20024;-37
2021/04/02 07:52:38;;;;;;;12.63;2.72;;;6.40;94.00;;;;;;5064469;28;20035;-37
2021/04/02 07:55:16;;;;;;;12.05;3.03;;;6.50;93.70;;;;;;5065576;28;20502;-41
2021/04/02 07:58:02;;;;;;;9.95;3.00;;;6.60;93.30;;;;;;5065640;28;20039;-38
2021/04/02 08:00:32;;;;;;;11.35;3.42;;;6.70;92.70;;;;;;5065742;28;20551;-38
2021/04/02 08:03:09;;;;;;;6.47;2.70;;;6.80;92.70;;;;;;5062609;28;20020;-39
2021/04/02 08:05:34;;;;;;;11.00;3.13;;;6.90;92.50;;;;;;5064187;28;20511;-38
2021/04/02 08:08:00;;;;;;;13.98;3.40;;;7.00;92.20;;;;;;5064620;28;20775;-36
2021/04/02 08:10:26;;;;;;;11.52;3.63;;;7.10;91.70;;;;;;5064758;28;20029;-38
2021/04/02 08:12:52;;;;;;;12.00;3.80;;;7.10;91.30;;;;;;5063697;28;20364;-35
2021/04/02 08:15:19;;;;;;;15.93;3.35;;;7.10;90.80;;;;;;5064892;28;20115;-36
2021/04/02 08:17:47;;;;;;;13.05;3.03;;;7.10;90.70;;;;;;5063641;28;20150;-35
2021/04/02 08:20:23;;;;;;;7.88;2.92;;;7.10;90.50;;;;;;5057662;28;20131;-38
2021/04/02 08:22:50;;;;;;;8.27;2.70;;;7.10;90.40;;;;;;5064451;28;20050;-39
2021/04/02 08:25:18;;;;;;;11.73;2.80;;;7.00;90.10;;;;;;5061739;28;20071;-40
2021/04/02 08:27:45;;;;;;;8.15;2.70;;;7.00;90.30;;;;;;5064144;28;20052;-39
2021/04/02 08:30:13;;;;;;;12.93;2.92;;;7.10;90.50;;;;;;5064880;28;20025;-39
2021/04/02 08:32:44;;;;;;;11.88;2.95;;;7.20;90.40;;;;;;5063726;28;20055;-38
2021/04/02 08:35:12;;;;;;;16.45;7.05;;;7.30;89.90;;;;;;5064646;28;20146;-38
2021/04/02 08:37:38;;;;;;;12.35;4.18;;;7.40;89.00;;;;;;5064570;28;20017;-38
2021/04/02 08:40:09;;;;;;;8.05;3.00;;;7.60;89.60;;;;;;5063833;28;20067;-38
2021/04/02 08:42:35;;;;;;;9.15;3.28;;;7.60;88.80;;;;;;5064203;28;20029;-37
2021/04/02 08:45:09;;;;;;;10.57;3.00;;;7.70;88.50;;;;;;5064520;28;20044;-38
2021/04/02 08:47:40;;;;;;;11.80;2.97;;;7.80;88.60;;;;;;5064182;28;20124;-38
2021/04/02 08:50:07;;;;;;;14.43;3.22;;;7.80;88.30;;;;;;5064773;28;20116;-40
2021/04/02 08:52:33;;;;;;;8.00;2.33;;;7.90;87.30;;;;;;5064498;28;20162;-37
2021/04/02 08:55:06;;;;;;;7.32;2.55;;;7.90;86.50;;;;;;5063803;28;20048;-38
2021/04/02 08:57:33;;;;;;;7.18;2.40;;;7.90;87.10;;;;;;5064272;28;20056;-38
2021/04/02 09:00:00;;;;;;;8.32;2.67;;;7.90;87.10;;;;;;5063911;28;20037;-38
2021/04/02 09:02:29;;;;;;;8.70;3.00;;;8.00;86.60;;;;;;5064370;28;20035;-39
2021/04/02 09:04:56;;;;;;;4.70;2.33;;;8.10;85.60;;;;;;5064186;28;20086;-38
2021/04/02 09:07:21;;;;;;;7.30;2.65;;;8.10;85.70;;;;;;5063910;28;20044;-38
2021/04/02 09:09:48;;;;;;;8.07;2.75;;;8.00;85.30;;;;;;5063975;28;20032;-38
2021/04/02 09:12:19;;;;;;;5.97;2.38;;;8.00;85.40;;;;;;5063644;28;20108;-39
2021/04/02 09:14:50;;;;;;;4.75;2.20;;;7.90;85.60;;;;;;5062895;28;20119;-37
2021/04/02 09:17:21;;;;;;;13.73;3.05;;;7.90;86.30;;;;;;5064949;28;20032;-39
2021/04/02 09:19:46;;;;;;;6.15;2.60;;;7.90;86.40;;;;;;5063634;28;20035;-39
2021/04/02 09:22:13;;;;;;;7.03;2.55;;;7.90;85.70;;;;;;5063809;28;20021;-37
2021/04/02 09:24:44;;;;;;;7.40;2.40;;;7.90;85.40;;;;;;5063462;28;20032;-36
2021/04/02 09:27:15;;;;;;;5.40;2.22;;;7.90;85.30;;;;;;5063766;28;20028;-36
2021/04/02 09:29:56;;;;;;;7.45;2.20;;;7.90;85.50;;;;;;5064805;28;20500;-37
2021/04/02 09:32:28;;;;;;;5.93;2.53;;;8.00;86.00;;;;;;5065981;28;20090;-36
2021/04/02 09:34:55;;;;;;;9.82;2.70;;;8.20;85.70;;;;;;5060237;28;20028;-38
2021/04/02 09:37:21;;;;;;;12.73;4.32;;;8.20;83.90;;;;;;5067296;28;20060;-38
2021/04/02 09:39:50;;;;;;;8.68;4.10;;;8.20;83.60;;;;;;5066958;28;20036;-40
2021/04/02 09:42:16;;;;;;;6.07;3.45;;;8.20;83.50;;;;;;5067441;28;20071;-36
2021/04/02 09:44:48;;;;;;;7.47;3.58;;;8.20;83.10;;;;;;5067415;28;20029;-37
2021/04/02 09:47:14;;;;;;;11.65;3.70;;;8.20;83.00;;;;;;5067600;28;20028;-38
2021/04/02 09:49:41;;;;;;;14.00;4.55;;;8.20;82.70;;;;;;5067135;28;20115;-41
2021/04/02 09:52:08;;;;;;;10.75;4.53;;;8.20;82.60;;;;;;5067336;28;20076;-37
2021/04/02 09:54:35;;;;;;;12.30;4.00;;;8.20;82.10;;;;;;5066798;28;20021;-37
2021/04/02 09:57:09;;;;;;;11.32;3.95;;;8.30;82.70;;;;;;5066787;28;20020;-39
2021/04/02 09:59:35;;;;;;;10.15;3.50;;;8.30;81.30;;;;;;5067558;28;20036;-38
2021/04/02 10:02:02;;;;;;;9.25;3.25;;;8.30;81.70;;;;;;5067022;28;20029;-35
2021/04/02 10:04:27;;;;;;;14.25;3.80;;;8.40;81.80;;;;;;5066369;28;20245;-38
2021/04/02 10:06:53;;;;;;;11.48;3.40;;;8.40;81.90;;;;;;5067139;28;20125;-38
2021/04/02 10:09:19;;;;;;;7.00;2.90;;;8.50;81.70;;;;;;5067568;28;20028;-41
2021/04/02 10:11:46;;;;;;;12.80;3.15;;;8.60;81.20;;;;;;5066845;28;20036;-39
2021/04/02 10:14:13;;;;;;;5.88;2.75;;;8.60;80.70;;;;;;5068115;28;20060;-41
2021/04/02 10:16:39;;;;;;;7.20;2.30;;;8.70;81.00;;;;;;5066700;28;20047;-37
2021/04/02 10:19:05;;;;;;;13.93;3.25;;;8.80;81.00;;;;;;5065938;28;20028;-42
2021/04/02 10:21:33;;;;;;;8.50;2.50;;;8.90;80.80;;;;;;5066358;28;20434;-38
2021/04/02 10:24:02;;;;;;;6.47;1.95;;;9.10;80.90;;;;;;5066456;28;20024;-35
2021/04/02 10:26:28;;;;;;;7.30;2.92;;;9.30;81.20;;;;;;5066230;28;20025;-42
2021/04/02 10:28:54;;;;;;;10.18;3.22;;;9.40;79.70;;;;;;5067153;28;20112;-38
2021/04/02 10:31:20;;;;;;;15.38;3.08;;;9.50;78.40;;;;;;5066536;28;20108;-38
2021/04/02 10:33:46;;;;;;;9.68;3.22;;;9.50;77.80;;;;;;5066064;28;20024;-37
2021/04/02 10:36:13;;;;;;;8.52;2.90;;;9.40;77.40;;;;;;5053431;28;20017;-39
2021/04/02 10:38:39;;;;;;;7.85;2.83;;;9.40;77.40;;;;;;5066479;28;20109;-39
2021/04/02 10:41:05;;;;;;;11.60;2.40;;;9.40;77.40;;;;;;5065602;28;20502;-39
2021/04/02 10:43:31;;;;;;;10.02;2.70;;;9.30;77.10;;;;;;5063746;28;20024;-38
2021/04/02 10:45:57;;;;;;;7.30;2.28;;;9.30;78.00;;;;;;5065335;28;20020;-39
2021/04/02 10:48:22;;;;;;;9.27;2.60;;;9.30;77.80;;;;;;5066690;28;20539;-38
2021/04/02 10:50:53;;;;;;;8.25;2.78;;;9.30;77.30;;;;;;5065945;28;20518;-39
2021/04/02 10:53:18;;;;;;;7.32;2.72;;;9.30;77.50;;;;;;5065821;28;20043;-38
2021/04/02 10:55:45;;;;;;;8.70;2.25;;;9.40;78.00;;;;;;5066354;28;20115;-39
2021/04/02 10:58:11;;;;;;;8.35;2.40;;;9.50;77.30;;;;;;5064940;28;20025;-36
2021/04/02 11:00:42;;;;;;;8.75;2.60;;;9.50;76.70;;;;;;5065761;28;20669;-36
2021/04/02 11:03:08;;;;;;;5.45;2.40;;;9.40;76.10;;;;;;5065101;28;20066;-39
2021/04/02 11:05:34;;;;;;;5.00;1.70;;;9.40;76.40;;;;;;5066268;28;20115;-38
2021/04/02 11:08:00;;;;;;;9.32;2.75;;;9.40;76.60;;;;;;5065435;28;20059;-39
2021/04/02 11:10:27;;;;;;;7.25;2.72;;;9.50;76.20;;;;;;5065960;28;20028;-39
2021/04/02 11:12:53;;;;;;;9.00;2.15;;;9.70;75.70;;;;;;5065623;28;20036;-38
2021/04/02 11:15:19;;;;;;;14.75;2.63;;;9.70;75.10;;;;;;5065763;28;20021;-39
2021/04/02 11:17:46;;;;;;;11.27;2.42;;;9.70;75.00;;;;;;5065705;28;20435;-38
2021/04/02 11:20:15;;;;;;;8.88;2.25;;;9.80;74.30;;;;;;5065447;28;20037;-38
2021/04/02 11:22:41;;;;;;;9.05;2.10;;;9.80;74.40;;;;;;5065430;28;20017;-39
2021/04/02 11:25:08;;;;;;;10.02;2.00;;;9.80;74.70;;;;;;5065942;28;20090;-39
2021/04/02 11:27:35;;;;;;;5.85;1.83;;;9.80;74.70;;;;;;5065212;28;20432;-39
2021/04/02 11:30:01;;;;;;;5.18;1.67;;;9.80;75.00;;;;;;5065359;28;20103;-39
2021/04/02 11:32:26;;;;;;;7.68;2.25;;;9.80;74.30;;;;;;5065263;28;20650;-40
2021/04/02 11:34:52;;;;;;;11.63;2.35;;;9.70;74.70;;;;;;5065215;28;20017;-40
2021/04/02 11:37:21;;;;;;;8.60;2.08;;;9.70;75.40;;;;;;5065833;28;20050;-39
2021/04/02 11:39:49;;;;;;;13.07;3.10;;;9.80;75.00;;;;;;5064528;28;20064;-39
2021/04/02 11:42:14;;;;;;;108.35;54.08;;;9.90;74.50;;;;;;5065310;28;20046;-39
2021/04/02 11:44:41;;;;;;;141.02;52.83;;;9.90;74.30;;;;;;5064741;28;20029;-38
2021/04/02 11:47:07;;;;;;;46.30;16.70;;;9.90;73.40;;;;;;5065399;28;20416;-41
2021/04/02 11:49:32;;;;;;;15.82;5.75;;;9.90;73.60;;;;;;5064768;28;20032;-37
2021/04/02 11:51:58;;;;;;;350.35;128.30;;;9.90;73.80;;;;;;5064896;28;20013;-38
2021/04/02 11:54:25;;;;;;;43.63;13.10;;;10.00;73.90;;;;;;5064885;28;20051;-41
2021/04/02 11:56:51;;;;;;;9.65;3.38;;;10.00;73.40;;;;;;5064101;28;20707;-44
2021/04/02 11:59:16;;;;;;;11.00;2.70;;;10.10;73.10;;;;;;5065458;28;20021;-39
2021/04/02 12:01:42;;;;;;;6.68;2.63;;;10.20;73.30;;;;;;5064681;28;20114;-36
2021/04/02 12:04:11;;;;;;;9.95;2.80;;;10.20;72.80;;;;;;5064567;28;20036;-41
2021/04/02 12:06:37;;;;;;;6.30;2.22;;;10.30;73.00;;;;;;5064893;28;20120;-39
2021/04/02 12:09:04;;;;;;;7.72;2.30;;;10.30;73.40;;;;;;5064809;28;20059;-40
2021/04/02 12:11:30;;;;;;;8.68;2.50;;;10.40;72.00;;;;;;5064313;28;20099;-38
2021/04/02 12:13:58;;;;;;;8.30;2.47;;;10.50;72.10;;;;;;5064904;28;20115;-39
2021/04/02 12:16:25;;;;;;;8.43;2.38;;;10.40;72.00;;;;;;5061767;28;20407;-41
2021/04/02 12:18:51;;;;;;;12.07;2.00;;;10.50;72.20;;;;;;5064254;28;20096;-39
2021/04/02 12:21:16;;;;;;;14.43;2.80;;;10.50;72.10;;;;;;5064887;28;20140;-41
2021/04/02 12:23:42;;;;;;;10.30;2.40;;;10.50;72.10;;;;;;5064988;28;20139;-39
2021/04/02 12:26:08;;;;;;;7.05;2.00;;;10.60;72.20;;;;;;5062664;28;20029;-37
2021/04/02 12:28:33;;;;;;;8.88;2.40;;;10.60;72.50;;;;;;5064571;28;20028;-38
2021/04/02 12:31:02;;;;;;;5.22;2.33;;;10.70;72.70;;;;;;5064327;28;20035;-39
2021/04/02 12:33:29;;;;;;;3.90;1.98;;;10.80;72.40;;;;;;5065238;28;20423;-37
2021/04/02 12:35:55;;;;;;;9.98;3.08;;;10.90;71.80;;;;;;5065276;28;20024;-40
2021/04/02 12:38:21;;;;;;;5.97;2.45;;;10.90;71.50;;;;;;5064418;28;20020;-44
2021/04/02 12:40:46;;;;;;;6.82;2.42;;;10.90;71.10;;;;;;5064365;28;20329;-39
2021/04/02 12:43:12;;;;;;;8.88;2.17;;;10.80;71.00;;;;;;5065475;28;20021;-38
2021/04/02 12:45:37;;;;;;;6.50;2.28;;;10.80;71.00;;;;;;5064075;28;20036;-38
2021/04/02 12:48:06;;;;;;;5.57;2.08;;;10.70;70.80;;;;;;5063592;28;20086;-37
2021/04/02 12:50:34;;;;;;;7.25;1.85;;;10.70;71.10;;;;;;5063529;28;20042;-37
2021/04/02 12:53:00;;;;;;;8.82;2.13;;;10.60;71.80;;;;;;5063532;28;20025;-38
2021/04/02 12:55:27;;;;;;;9.88;2.53;;;10.50;71.80;;;;;;5063791;28;20048;-38